createdAt,value
2018-11-12T00:00:23.091Z,96145.80
2018-11-12T00:02:49.104Z,96150.16
2018-11-12T00:05:15.110Z,96151.13
2018-11-12T00:07:41.099Z,96152.69
2018-11-12T00:10:07.103Z,96153.24
2018-11-12T00:12:33.117Z,96150.90
2018-11-12T00:14:59.125Z,96159.56
2018-11-12T00:17:25.105Z,96157.52
2018-11-12T00:19:51.117Z,96154.77
2018-11-12T00:22:17.121Z,96164.41
2018-11-12T00:24:43.110Z,96159.08
2018-11-12T00:27:09.119Z,96164.25
2018-11-12T00:29:35.102Z,96167.34
2018-11-12T00:32:01.119Z,96165.55
2018-11-12T00:34:27.103Z,96165.15
2018-11-12T00:36:53.082Z,96170.98
2018-11-12T00:39:19.085Z,96169.20
2018-11-12T00:41:45.070Z,96166.70
2018-11-12T00:44:11.062Z,96174.37
2018-11-12T00:46:37.060Z,96170.98
2018-11-12T00:49:03.075Z,96167.82
2018-11-12T00:51:29.087Z,96161.50
2018-11-12T00:53:55.104Z,96156.59
2018-11-12T00:56:21.085Z,96155.77
2018-11-12T00:58:47.074Z,96152.45
2018-11-12T01:01:13.050Z,96148.89
2018-11-12T01:03:39.073Z,96146.95
2018-11-12T01:06:05.057Z,96149.45
2018-11-12T01:08:31.061Z,96145.50
2018-11-12T01:10:57.041Z,96144.91
2018-11-12T01:13:23.049Z,96143.94
2018-11-12T01:15:49.033Z,96149.45
2018-11-12T01:18:15.038Z,96149.45
2018-11-12T01:20:41.038Z,96148.07
2018-11-12T01:23:07.054Z,96154.47
2018-11-12T01:25:33.040Z,96155.13
2018-11-12T01:27:59.052Z,96149.37
2018-11-12T01:30:25.059Z,96139.33
2018-11-12T01:32:51.069Z,96140.70
2018-11-12T01:35:17.083Z,96147.59
2018-11-12T01:37:43.085Z,96149.55
2018-11-12T01:40:09.060Z,96156.43
2018-11-12T01:42:35.085Z,96161.53
2018-11-12T01:45:01.085Z,96161.05
2018-11-12T01:47:27.061Z,96170.49
2018-11-12T01:49:53.067Z,96158.29
2018-11-12T01:52:19.049Z,96163.23
2018-11-12T01:54:45.035Z,96163.61
2018-11-12T01:57:11.013Z,96164.20
2018-11-12T01:59:37.023Z,96154.49
2018-11-12T02:02:03.033Z,96150.52
2018-11-12T02:04:29.015Z,96146.57
2018-11-12T02:06:55.024Z,96136.94
2018-11-12T02:09:21.062Z,96132.81
2018-11-12T02:11:47.051Z,96127.86
2018-11-12T02:14:13.082Z,96134.75
2018-11-12T02:16:39.056Z,96138.46
2018-11-12T02:19:05.036Z,96133.11
2018-11-12T02:21:31.058Z,96132.55
2018-11-12T02:23:57.034Z,96135.08
2018-11-12T02:26:23.039Z,96140.81
2018-11-12T02:28:49.042Z,96148.02
2018-11-12T02:31:15.051Z,96166.31
2018-11-12T02:33:41.066Z,96171.00
2018-11-12T02:36:07.070Z,96172.78
2018-11-12T02:38:33.084Z,96174.57
2018-11-12T02:40:59.077Z,96177.73
2018-11-12T02:43:25.085Z,96181.45
2018-11-12T02:45:51.069Z,96185.98
2018-11-12T02:48:17.076Z,96194.39
2018-11-12T02:50:43.078Z,96195.21
2018-11-12T02:53:09.061Z,96192.45
2018-11-12T02:55:35.065Z,96201.69
2018-11-12T02:58:01.048Z,96212.84
2018-11-12T03:00:27.035Z,96211.88
2018-11-12T03:02:53.045Z,96208.00
2018-11-12T03:05:19.050Z,96208.16
2018-11-12T03:07:45.072Z,96205.40
2018-11-12T03:10:11.012Z,96203.61
2018-11-12T03:12:37.032Z,96213.66
2018-11-12T03:15:03.036Z,96226.59
2018-11-12T03:17:29.043Z,96224.02
2018-11-12T03:19:55.036Z,96216.33
2018-11-12T03:22:21.032Z,96222.39
2018-11-12T03:24:47.019Z,96221.83
2018-11-12T03:27:13.031Z,96221.27
2018-11-12T03:29:39.017Z,96227.59
2018-11-12T03:32:05.026Z,96217.15
2018-11-12T03:34:31.026Z,96218.52
2018-11-12T03:36:57.017Z,96217.30
2018-11-12T03:39:23.008Z,96220.05
2018-11-12T03:41:48.984Z,96226.14
2018-11-12T03:44:14.962Z,96221.02
2018-11-12T03:46:40.973Z,96220.64
2018-11-12T03:49:06.999Z,96223.95
2018-11-12T03:51:32.997Z,96228.08
2018-11-12T03:53:58.981Z,96234.55
2018-11-12T03:56:24.976Z,96235.28
2018-11-12T03:58:51.005Z,96237.85
2018-11-12T04:01:17.011Z,96243.77
2018-11-12T04:03:42.988Z,96251.47
2018-11-12T04:06:08.988Z,96253.40
2018-11-12T04:08:35.000Z,96258.67
2018-11-12T04:11:00.971Z,96260.34
2018-11-12T04:13:26.988Z,96261.16
2018-11-12T04:15:52.973Z,96265.55
2018-11-12T04:18:18.980Z,96269.27
2018-11-12T04:20:44.996Z,96263.77
2018-11-12T04:23:11.002Z,96257.45
2018-11-12T04:25:36.977Z,96251.94
2018-11-12T04:28:02.991Z,96250.56
2018-11-12T04:30:29.001Z,96247.00
2018-11-12T04:32:54.985Z,96237.77
2018-11-12T04:35:20.989Z,96244.83
2018-11-12T04:37:46.999Z,96244.42
2018-11-12T04:40:12.985Z,96244.02
2018-11-12T04:42:38.997Z,96243.61
2018-11-12T04:45:05.019Z,96255.84
2018-11-12T04:47:31.001Z,96260.67
2018-11-12T04:49:57.002Z,96268.78
2018-11-12T04:52:22.986Z,96279.38
2018-11-12T04:54:48.997Z,96281.72
2018-11-12T04:57:15.015Z,96286.41
2018-11-12T04:59:41.000Z,96290.16
2018-11-12T05:02:07.038Z,96285.29
2018-11-12T05:04:32.992Z,96281.57
2018-11-12T05:06:58.972Z,96281.57
2018-11-12T05:09:25.041Z,96277.03
2018-11-12T05:11:51.029Z,96270.72
2018-11-12T05:14:17.048Z,96275.97
2018-11-12T05:16:43.155Z,96282.14
2018-11-12T05:19:09.043Z,96279.72
2018-11-12T05:21:35.024Z,96288.13
2018-11-12T05:24:01.008Z,96284.55
2018-11-12T05:26:27.011Z,96290.63
2018-11-12T05:28:52.992Z,96298.88
2018-11-12T05:31:19.036Z,96303.27
2018-11-12T05:33:45.058Z,96310.53
2018-11-12T05:36:11.059Z,96312.72
2018-11-12T05:38:37.060Z,96324.78
2018-11-12T05:41:03.052Z,96324.22
2018-11-12T05:43:29.068Z,96324.22
2018-11-12T05:45:55.108Z,96320.18
2018-11-12T05:48:21.159Z,96319.54
2018-11-12T05:50:47.161Z,96325.20
2018-11-12T05:53:13.171Z,96324.86
2018-11-12T05:55:39.154Z,96328.58
2018-11-12T05:58:05.247Z,96329.07
2018-11-12T06:00:31.260Z,96335.80
2018-11-12T06:02:57.271Z,96342.28
2018-11-12T06:05:23.255Z,96349.47
2018-11-12T06:07:49.262Z,96351.84
2018-11-12T06:10:15.270Z,96354.75
2018-11-12T06:12:41.253Z,96363.49
2018-11-12T06:15:07.267Z,96363.49
2018-11-12T06:17:33.350Z,96365.77
2018-11-12T06:19:59.368Z,96373.53
2018-11-12T06:22:25.416Z,96378.95
2018-11-12T06:24:51.418Z,96377.59
2018-11-12T06:27:17.404Z,96381.13
2018-11-12T06:29:43.409Z,96380.48
2018-11-12T06:32:09.439Z,96374.66
2018-11-12T06:34:35.508Z,96370.30
2018-11-12T06:37:01.515Z,96373.20
2018-11-12T06:39:27.529Z,96369.24
2018-11-12T06:41:53.516Z,96375.72
2018-11-12T06:44:19.527Z,96370.12
2018-11-12T06:46:45.539Z,96368.89
2018-11-12T06:49:11.536Z,96365.03
2018-11-12T06:51:37.516Z,96371.83
2018-11-12T06:54:03.541Z,96375.37
2018-11-12T06:56:29.542Z,96372.06
2018-11-12T06:58:55.563Z,96376.92
2018-11-12T07:01:21.583Z,96382.02
2018-11-12T07:03:47.682Z,96383.25
2018-11-12T07:06:13.692Z,96380.41
2018-11-12T07:08:39.686Z,96376.28
2018-11-12T07:11:05.675Z,96386.15
2018-11-12T07:13:31.699Z,96390.83
2018-11-12T07:15:57.710Z,96392.06
2018-11-12T07:18:23.733Z,96386.15
2018-11-12T07:20:49.765Z,96387.84
2018-11-12T07:23:15.772Z,96386.95
2018-11-12T07:25:41.769Z,96394.09
2018-11-12T07:28:07.759Z,96388.17
2018-11-12T07:30:33.766Z,96391.89
2018-11-12T07:32:59.744Z,96391.34
2018-11-12T07:35:25.737Z,96390.44
2018-11-12T07:37:51.721Z,96390.25
2018-11-12T07:40:17.827Z,96389.29
2018-11-12T07:42:43.810Z,96388.73
2018-11-12T07:45:09.800Z,96393.00
2018-11-12T07:47:35.781Z,96394.38
2018-11-12T07:50:01.795Z,96385.34
2018-11-12T07:52:27.790Z,96391.89
2018-11-12T07:54:53.784Z,96396.02
2018-11-12T07:57:19.791Z,96396.44
2018-11-12T07:59:45.804Z,96399.97
2018-11-12T08:02:11.792Z,96397.07
2018-11-12T08:04:37.820Z,96392.80
2018-11-12T08:07:03.837Z,96394.89
2018-11-12T08:09:29.945Z,96400.80
2018-11-12T08:11:55.963Z,96388.19
2018-11-12T08:14:21.962Z,96391.00
2018-11-12T08:16:47.936Z,96388.25
2018-11-12T08:19:13.959Z,96396.77
2018-11-12T08:21:39.999Z,96387.84
2018-11-12T08:24:06.000Z,96387.22
2018-11-12T08:26:31.938Z,96385.43
2018-11-12T08:28:57.945Z,96380.33
2018-11-12T08:31:23.929Z,96384.45
2018-11-12T08:33:49.933Z,96384.53
2018-11-12T08:36:15.933Z,96378.88
2018-11-12T08:38:41.967Z,96378.22
2018-11-12T08:41:08.049Z,96378.95
2018-11-12T08:43:33.980Z,96385.04
2018-11-12T08:46:00.027Z,96383.80
2018-11-12T08:48:26.010Z,96376.12
2018-11-12T08:50:51.956Z,96368.66
2018-11-12T08:53:17.970Z,96376.36
2018-11-12T08:55:43.991Z,96374.57
2018-11-12T08:58:10.503Z,96374.16
2018-11-12T09:00:36.021Z,96374.16
2018-11-12T09:03:02.015Z,96367.78
2018-11-12T09:05:28.007Z,96366.23
2018-11-12T09:07:54.008Z,96362.59
2018-11-12T09:10:20.804Z,96366.66
2018-11-12T09:12:46.983Z,96368.94
2018-11-12T09:15:13.580Z,96365.45
2018-11-12T09:17:39.567Z,96356.70
2018-11-12T09:20:05.762Z,96364.30
2018-11-12T09:22:43.620Z,96366.91
2018-11-12T09:25:09.594Z,96369.73
2018-11-12T09:27:35.677Z,96365.43
2018-11-12T09:30:02.299Z,96364.46
2018-11-12T09:32:28.261Z,96355.41
2018-11-12T09:34:54.340Z,96367.72
2018-11-12T09:37:20.442Z,96361.14
2018-11-12T09:39:46.369Z,96356.37
2018-11-12T09:42:12.359Z,96358.01
2018-11-12T09:44:38.371Z,96351.68
2018-11-12T09:47:04.378Z,96348.52
2018-11-12T09:49:30.365Z,96355.41
2018-11-12T09:51:56.354Z,96355.48
2018-11-12T09:54:22.562Z,96349.02
2018-11-12T09:56:48.355Z,96344.88
2018-11-12T09:59:14.391Z,96339.78
2018-11-12T10:01:40.929Z,96334.69
2018-11-12T10:04:07.355Z,96334.52
2018-11-12T10:06:33.872Z,96332.25
2018-11-12T10:09:00.474Z,96332.73
2018-11-12T10:11:27.690Z,96325.45
2018-11-12T10:13:53.260Z,96321.39
2018-11-12T10:16:19.844Z,96313.63
2018-11-12T10:18:42.317Z,96314.04
2018-11-12T10:21:08.345Z,96310.63
2018-11-12T10:23:34.367Z,96300.66
2018-11-12T10:26:00.362Z,96302.94
2018-11-12T10:28:26.346Z,96298.33
2018-11-12T10:30:52.356Z,96300.57
2018-11-12T10:33:18.377Z,96301.27
2018-11-12T10:35:44.388Z,96299.89
2018-11-12T10:38:10.421Z,96291.45
2018-11-12T10:40:36.433Z,96292.91
2018-11-12T10:43:02.441Z,96286.98
2018-11-12T10:45:28.425Z,96288.70
2018-11-12T10:47:54.478Z,96290.16
2018-11-12T10:50:20.454Z,96287.66
2018-11-12T10:52:46.443Z,96293.58
2018-11-12T10:55:12.618Z,96287.25
2018-11-12T10:57:38.440Z,96289.11
2018-11-12T11:00:04.469Z,96294.44
2018-11-12T11:02:30.454Z,96285.54
2018-11-12T11:04:56.457Z,96287.56
2018-11-12T11:07:22.441Z,96283.77
2018-11-12T11:09:48.426Z,96280.45
2018-11-12T11:12:14.435Z,96280.34
2018-11-12T11:14:40.439Z,96275.24
2018-11-12T11:17:06.446Z,96272.56
2018-11-12T11:19:32.484Z,96270.22
2018-11-12T11:21:58.447Z,96267.28
2018-11-12T11:24:24.445Z,96265.20
2018-11-12T11:26:50.483Z,96259.02
2018-11-12T11:29:16.535Z,96254.52
2018-11-12T11:31:42.547Z,96250.46
2018-11-12T11:34:08.525Z,96252.39
2018-11-12T11:36:34.535Z,96245.73
2018-11-12T11:39:00.524Z,96249.95
2018-11-12T11:41:26.501Z,96258.69
2018-11-12T11:43:52.507Z,96253.82
2018-11-12T11:46:18.502Z,96253.26
2018-11-12T11:48:44.538Z,96246.70
2018-11-12T11:51:10.468Z,96243.21
2018-11-12T11:53:36.504Z,96248.72
2018-11-12T11:56:02.469Z,96246.11
2018-11-12T11:58:28.489Z,96243.28
2018-11-12T12:00:54.487Z,96248.31
2018-11-12T12:03:20.478Z,96240.60
2018-11-12T12:05:46.507Z,96227.62
2018-11-12T12:08:12.489Z,96223.33
2018-11-12T12:10:38.528Z,96222.92
2018-11-12T12:13:04.505Z,96217.08
2018-11-12T12:15:30.500Z,96212.39
2018-11-12T12:17:56.481Z,96208.00
2018-11-12T12:20:22.493Z,96207.99
2018-11-12T12:22:48.502Z,96203.45
2018-11-12T12:25:14.693Z,96205.05
2018-11-12T12:27:40.485Z,96193.61
2018-11-12T12:30:06.461Z,96184.56
2018-11-12T12:32:32.485Z,96189.25
2018-11-12T12:34:58.493Z,96183.26
2018-11-12T12:37:24.502Z,96184.03
2018-11-12T12:39:50.560Z,96180.31
2018-11-12T12:42:16.560Z,96181.05
2018-11-12T12:44:42.621Z,96180.13
2018-11-12T12:47:08.577Z,96169.36
2018-11-12T12:49:34.648Z,96171.84
2018-11-12T12:52:00.595Z,96172.03
2018-11-12T12:54:26.640Z,96169.02
2018-11-12T12:56:52.652Z,96171.15
2018-11-12T12:59:18.664Z,96170.06
2018-11-12T13:01:44.727Z,96172.89
2018-11-12T13:04:10.667Z,96171.70
2018-11-12T13:06:36.690Z,96171.03
2018-11-12T13:09:02.675Z,96168.28
2018-11-12T13:11:28.685Z,96172.59
2018-11-12T13:13:54.718Z,96177.36
2018-11-12T13:16:20.682Z,96175.35
2018-11-12T13:18:46.695Z,96182.32
2018-11-12T13:21:12.716Z,96178.03
2018-11-12T13:23:38.694Z,96182.66
2018-11-12T13:26:04.672Z,96180.13
2018-11-12T13:28:30.652Z,96177.48
2018-11-12T13:30:56.662Z,96168.81
2018-11-12T13:33:22.647Z,96164.67
2018-11-12T13:35:48.675Z,96167.36
2018-11-12T13:38:14.653Z,96169.81
2018-11-12T13:40:40.655Z,96165.91
2018-11-12T13:43:06.659Z,96171.98
2018-11-12T13:45:32.661Z,96175.97
2018-11-12T13:47:58.671Z,96175.19
2018-11-12T13:50:24.678Z,96174.70
2018-11-12T13:52:50.676Z,96172.66
2018-11-12T13:55:16.669Z,96177.38
2018-11-12T13:57:42.645Z,96173.33
2018-11-12T14:00:08.632Z,96173.19
2018-11-12T14:02:34.620Z,96175.72
2018-11-12T14:05:00.602Z,96174.27
2018-11-12T14:07:26.612Z,96171.81
2018-11-12T14:09:52.591Z,96168.61
2018-11-12T14:12:18.608Z,96171.11
2018-11-12T14:14:44.605Z,96173.45
2018-11-12T14:17:10.585Z,96176.13
2018-11-12T14:19:36.574Z,96174.45
2018-11-12T14:22:02.658Z,96173.64
2018-11-12T14:24:28.635Z,96172.04
2018-11-12T14:26:54.684Z,96172.04
2018-11-12T14:29:20.693Z,96179.56
2018-11-12T14:31:46.709Z,96175.84
2018-11-12T14:34:12.768Z,96176.39
2018-11-12T14:36:38.707Z,96177.55
2018-11-12T14:39:04.737Z,96176.73
2018-11-12T14:41:30.757Z,96183.55
2018-11-12T14:43:56.780Z,96181.20
2018-11-12T14:46:22.780Z,96177.88
2018-11-12T14:48:48.812Z,96177.33
2018-11-12T14:51:14.858Z,96176.99
2018-11-12T14:53:40.789Z,96181.30
2018-11-12T14:56:06.797Z,96177.10
2018-11-12T14:58:32.787Z,96183.42
2018-11-12T15:00:58.795Z,96181.45
2018-11-12T15:03:24.781Z,96183.35
2018-11-12T15:05:50.771Z,96182.35
2018-11-12T15:08:16.773Z,96186.70
2018-11-12T15:10:42.779Z,96185.92
2018-11-12T15:13:08.769Z,96189.80
2018-11-12T15:15:34.755Z,96191.28
2018-11-12T15:18:00.807Z,96195.00
2018-11-12T15:20:26.760Z,96188.83
2018-11-12T15:22:52.920Z,96187.45
2018-11-12T15:25:18.851Z,96189.75
2018-11-12T15:27:44.832Z,96191.83
2018-11-12T15:30:10.862Z,96198.16
2018-11-12T15:32:36.835Z,96205.04
2018-11-12T15:35:02.866Z,96203.41
2018-11-12T15:37:28.847Z,96207.30
2018-11-12T15:39:54.852Z,96208.20
2018-11-12T15:42:20.847Z,96214.27
2018-11-12T15:44:46.861Z,96211.84
2018-11-12T15:47:12.902Z,96215.89
2018-11-12T15:49:38.911Z,96217.45
2018-11-12T15:52:04.915Z,96220.91
2018-11-12T15:54:30.933Z,96228.38
2018-11-12T15:56:56.963Z,96227.56
2018-11-12T15:59:22.922Z,96234.59
2018-11-12T16:01:48.941Z,96225.14
2018-11-12T16:04:14.926Z,96230.65
2018-11-12T16:06:41.053Z,96234.70
2018-11-12T16:09:07.023Z,96238.27
2018-11-12T16:11:33.030Z,96244.16
2018-11-12T16:13:59.056Z,96242.55
2018-11-12T16:16:25.037Z,96243.28
2018-11-12T16:18:51.054Z,96241.73
2018-11-12T16:21:17.059Z,96244.25
2018-11-12T16:23:43.061Z,96242.62
2018-11-12T16:26:09.129Z,96250.87
2018-11-12T16:28:35.129Z,96248.05
2018-11-12T16:31:01.155Z,96253.14
2018-11-12T16:33:27.153Z,96255.11
2018-11-12T16:35:53.319Z,96255.00
2018-11-12T16:38:19.344Z,96262.38
2018-11-12T16:40:45.349Z,96260.36
2018-11-12T16:43:11.354Z,96270.88
2018-11-12T16:45:37.338Z,96270.47
2018-11-12T16:48:03.356Z,96273.63
2018-11-12T16:50:29.348Z,96274.45
2018-11-12T16:52:55.338Z,96274.61
2018-11-12T16:55:21.345Z,96273.79
2018-11-12T16:57:47.405Z,96277.69
2018-11-12T17:00:13.392Z,96284.16
2018-11-12T17:02:39.409Z,96285.69
2018-11-12T17:05:05.423Z,96285.28
2018-11-12T17:07:31.413Z,96294.03
2018-11-12T17:09:57.392Z,96292.66
2018-11-12T17:12:23.516Z,96293.32
2018-11-12T17:14:49.466Z,96290.39
2018-11-12T17:17:15.465Z,96292.66
2018-11-12T17:19:41.637Z,96290.08
2018-11-12T17:22:07.722Z,96290.64
2018-11-12T17:24:33.994Z,96295.50
2018-11-12T17:27:00.297Z,96301.16
2018-11-12T17:29:26.276Z,96302.94
2018-11-12T17:31:52.616Z,96304.14
2018-11-12T17:34:18.605Z,96311.42
2018-11-12T17:36:44.750Z,96310.56
2018-11-12T17:39:10.659Z,96312.80
2018-11-12T17:41:38.564Z,96311.94
2018-11-12T17:44:04.544Z,96310.56
2018-11-12T17:46:30.618Z,96316.77
2018-11-12T17:48:56.626Z,96313.61
2018-11-12T17:51:22.937Z,96326.16
2018-11-12T17:53:50.043Z,96326.35
2018-11-12T17:56:16.204Z,96326.73
2018-11-12T17:58:42.236Z,96329.19
2018-11-12T18:01:08.244Z,96329.97
2018-11-12T18:03:34.237Z,96325.84
2018-11-12T18:06:03.594Z,96320.59
2018-11-12T18:08:29.614Z,96329.58
2018-11-12T18:10:55.631Z,96324.71
2018-11-12T18:13:21.687Z,96329.02
2018-11-12T18:15:47.846Z,96331.52
2018-11-12T18:18:14.383Z,96335.39
2018-11-12T18:20:40.894Z,96339.93
2018-11-12T18:23:07.216Z,96342.13
2018-11-12T18:25:33.684Z,96342.69
2018-11-12T18:28:00.022Z,96347.08
2018-11-12T18:30:26.842Z,96347.48
2018-11-12T18:32:53.097Z,96349.56
2018-11-12T18:35:19.730Z,96353.78
2018-11-12T18:40:12.048Z,96358.17
2018-11-12T18:42:38.062Z,96359.55
2018-11-12T18:45:04.052Z,96355.82
2018-11-12T18:47:31.003Z,96365.20
2018-11-12T18:49:57.054Z,96366.49
2018-11-12T18:52:23.069Z,96371.52
2018-11-12T18:54:49.090Z,96369.88
2018-11-12T18:57:15.078Z,96372.16
2018-11-12T18:59:41.512Z,96376.30
2018-11-12T19:02:07.548Z,96372.09
2018-11-12T19:04:34.490Z,96374.59
2018-11-12T19:07:00.481Z,96374.44
2018-11-12T19:09:26.473Z,96377.44
2018-11-12T19:11:52.466Z,96374.77
2018-11-12T19:14:18.487Z,96380.50
2018-11-12T19:16:44.473Z,96379.87
2018-11-12T19:19:10.482Z,96379.14
2018-11-12T19:21:36.472Z,96379.38
2018-11-12T19:24:02.466Z,96381.88
2018-11-12T19:26:28.660Z,96384.00
2018-11-12T19:28:54.690Z,96383.03
2018-11-12T19:31:20.822Z,96386.34
2018-11-12T19:33:46.810Z,96385.30
2018-11-12T19:36:12.810Z,96384.81
2018-11-12T19:38:38.828Z,96380.83
2018-11-12T19:41:04.916Z,96384.14
2018-11-12T19:43:31.082Z,96383.26
2018-11-12T19:45:57.285Z,96389.17
2018-11-12T19:48:23.330Z,96391.29
2018-11-12T19:50:49.324Z,96393.16
2018-11-12T19:53:15.535Z,96394.35
2018-11-12T19:55:41.521Z,96390.73
2018-11-12T19:58:07.534Z,96398.48
2018-11-12T20:00:33.944Z,96397.02
2018-11-12T20:02:59.942Z,96391.61
2018-11-12T20:05:25.961Z,96394.75
2018-11-12T20:07:51.962Z,96395.66
2018-11-12T20:10:18.280Z,96399.12
2018-11-12T20:12:44.283Z,96402.84
2018-11-12T20:15:10.297Z,96402.12
2018-11-12T20:17:37.204Z,96401.48
2018-11-12T20:20:03.215Z,96398.47
2018-11-12T20:22:29.735Z,96398.47
2018-11-12T20:24:55.803Z,96398.38
2018-11-12T20:27:22.020Z,96401.95
2018-11-12T20:29:48.010Z,96401.55
2018-11-12T20:32:13.992Z,96405.85
2018-11-12T20:34:40.058Z,96407.38
2018-11-12T20:37:06.022Z,96410.53
2018-11-12T20:39:32.017Z,96404.63
2018-11-12T20:41:58.019Z,96416.78
2018-11-12T20:44:24.008Z,96416.78
2018-11-12T20:46:49.990Z,96417.56
2018-11-12T20:49:15.972Z,96417.89
2018-11-12T20:51:47.267Z,96424.07
2018-11-12T20:54:13.329Z,96419.68
2018-11-12T20:56:39.337Z,96422.75
2018-11-12T20:59:05.347Z,96429.08
2018-11-12T21:01:31.355Z,96428.27
2018-11-12T21:04:02.727Z,96426.80
2018-11-12T21:06:29.135Z,96429.00
2018-11-12T21:08:55.673Z,96434.01
2018-11-12T21:11:21.725Z,96426.16
2018-11-12T21:13:47.699Z,96427.91
2018-11-12T21:16:13.685Z,96428.65
2018-11-12T21:18:39.714Z,96423.47
2018-11-12T21:21:05.722Z,96419.34
2018-11-12T21:23:31.783Z,96423.06
2018-11-12T21:25:57.732Z,96424.29
2018-11-12T21:28:23.715Z,96424.61
2018-11-12T21:30:49.725Z,96428.48
2018-11-12T21:33:15.736Z,96420.78
2018-11-12T21:35:41.750Z,96418.84
2018-11-12T21:38:07.763Z,96425.08
2018-11-12T21:40:33.754Z,96429.13
2018-11-12T21:42:59.755Z,96421.59
2018-11-12T21:45:25.718Z,96422.09
2018-11-12T21:47:51.705Z,96421.03
2018-11-12T21:50:17.714Z,96419.84
2018-11-12T21:52:43.695Z,96424.38
2018-11-12T21:55:09.734Z,96423.23
2018-11-12T21:57:35.718Z,96421.70
2018-11-12T22:00:01.769Z,96426.06
2018-11-12T22:02:27.721Z,96430.45
2018-11-12T22:04:53.731Z,96429.08
2018-11-12T22:07:19.734Z,96426.63
2018-11-12T22:09:45.742Z,96423.98
2018-11-12T22:12:11.722Z,96426.06
2018-11-12T22:14:37.736Z,96420.00
2018-11-12T22:17:03.748Z,96421.23
2018-11-12T22:19:29.935Z,96422.61
2018-11-12T22:21:55.865Z,96416.44
2018-11-12T22:24:21.850Z,96420.64
2018-11-12T22:26:47.884Z,96416.52
2018-11-12T22:29:13.891Z,96415.88
2018-11-12T22:31:39.865Z,96414.99
2018-11-12T22:34:05.852Z,96414.17
2018-11-12T22:36:31.840Z,96408.44
2018-11-12T22:38:57.825Z,96411.83
2018-11-12T22:41:23.815Z,96410.22
2018-11-12T22:43:49.822Z,96405.69
2018-11-12T22:46:15.880Z,96402.34
2018-11-12T22:48:41.856Z,96398.22
2018-11-12T22:51:07.835Z,96399.59
2018-11-12T22:53:33.879Z,96397.25
2018-11-12T22:55:59.886Z,96408.19
2018-11-12T22:58:28.255Z,96406.33
2018-11-12T23:00:54.268Z,96404.72
2018-11-12T23:03:20.273Z,96406.65
2018-11-12T23:05:46.260Z,96404.37
2018-11-12T23:08:12.242Z,96411.25
2018-11-12T23:10:38.249Z,96401.86
2018-11-12T23:13:04.262Z,96408.41
2018-11-12T23:15:30.271Z,96403.97
2018-11-12T23:17:56.265Z,96410.44
2018-11-12T23:20:22.249Z,96412.14
2018-11-12T23:22:48.239Z,96406.15
2018-11-12T23:25:14.243Z,96410.28
2018-11-12T23:27:40.319Z,96415.52
2018-11-12T23:30:06.324Z,96421.84
2018-11-12T23:32:32.332Z,96420.38
2018-11-12T23:34:58.312Z,96419.97
2018-11-12T23:37:24.323Z,96427.26
2018-11-12T23:39:50.336Z,96429.05
2018-11-12T23:42:16.316Z,96421.11
2018-11-12T23:44:42.332Z,96424.66
2018-11-12T23:47:08.341Z,96430.48
2018-11-12T23:49:34.378Z,96426.77
2018-11-12T23:52:00.696Z,96426.13
2018-11-12T23:54:26.693Z,96431.86
2018-11-12T23:56:52.700Z,96431.07
2018-11-12T23:59:18.706Z,96427.32
